Tuesday, October 17, 2017, 2:53 PM EDT
Back to Local

KMVY, Vineyard Haven Marthas Vin

Location: Vineyard Haven, MA, United States Lat: 41.4
Local Time: 2:53 PM EDT (18:53 GMT) Lon: -70.617
Time Zone: US/Eastern Elev: 68 ft

Show me the last for .
Show Decoded

2017-10-17 13:53 METAR KMVY 171753Z VRB03KT 10SM FEW036 13/03 A3025 RMK AO2 SLP243 T01280033
                 10133 20078 58007 =
2017-10-17 12:53 METAR KMVY 171653Z 04009KT 10SM CLR 12/03 A3026 RMK AO2 SLP248 T01220028 =
2017-10-17 11:53 METAR KMVY 171553Z 36008G14KT 10SM BKN035 12/03 A3027 RMK AO2 SLP251 T01220028 =
2017-10-17 10:53 METAR KMVY 171453Z 01011G20KT 10SM CLR 12/02 A3027 RMK AO2 SLP250 T01170022
                 51008 =
2017-10-17 09:53 METAR KMVY 171353Z 36009KT 10SM CLR 11/04 A3027 RMK AO2 SLP249 T01060039 =
2017-10-17 08:53 METAR KMVY 171253Z 36010G16KT 10SM CLR 09/04 A3026 RMK AO2 SLP248 T00940039 =
2017-10-17 07:53 METAR KMVY 171153Z 35008KT 10SM CLR 08/04 A3024 RMK AO2 SLP242 T00780039 10078
                 20061 53020 =
2017-10-17 06:53 METAR KMVY 171053Z 34008KT 10SM FEW046 07/03 A3022 RMK AO2 SLP234 T00670033 =
2017-10-17 05:53 METAR KMVY 170953Z 34011KT 10SM SCT034 OVC044 07/03 A3020 RMK AO2 SLP228
                 T00720028 =
2017-10-17 04:53 METAR KMVY 170853Z AUTO 34011G19KT 10SM FEW030 BKN037 07/03 A3018 RMK AO2 SLP221
                 T00720028 53017 =
2017-10-17 03:53 METAR KMVY 170753Z AUTO 34012KT 10SM BKN031 07/02 A3016 RMK AO2 SLP213 T00670022
                 =
2017-10-17 02:53 METAR KMVY 170653Z AUTO 35009KT 10SM CLR 07/02 A3014 RMK AO2 SLP206 T00720022 =
2017-10-17 01:53 METAR KMVY 170553Z AUTO 35011KT 10SM CLR 07/01 A3014 RMK AO2 SLP204 T00720011
                 10117 20072 51011 =
2017-10-17 00:53 METAR KMVY 170453Z AUTO 36011G20KT 10SM FEW055 08/00 A3013 RMK AO2 SLP201
                 T00830000 401940083 =
2017-10-16 23:53 METAR KMVY 170353Z AUTO 35014G25KT 10SM OVC050 09/01 A3012 RMK AO2 SLP200
                 T00940011 =
2017-10-16 22:53 METAR KMVY 170253Z AUTO 36011G17KT 10SM OVC046 10/03 A3010 RMK AO2 SLP193
                 T01000028 51023 =
2017-10-16 21:53 METAR KMVY 170153Z 34012G21KT 10SM OVC041 11/03 A3009 RMK AO2 SLP188 T01060033 =
2017-10-16 20:53 METAR KMVY 170053Z 35011KT 10SM FEW055 11/04 A3006 RMK AO2 SLP179 T01060044 =
2017-10-16 19:53 METAR KMVY 162353Z 35012KT 10SM SCT047 OVC060 12/04 A3003 RMK AO2 SLP170 60000
                 T01170044 10167 20117 51026 =
2017-10-16 18:53 METAR KMVY 162253Z 35007KT 10SM OVC042 12/06 A3002 RMK AO2 SLP165 T01170061 =
2017-10-16 17:53 METAR KMVY 162153Z 36008KT 10SM OVC036 12/06 A2998 RMK AO2 SLP152 T01220061 =
2017-10-16 17:09 METAR KMVY 162109Z 01008KT 10SM OVC031 13/08 A2996 RMK AO2 T01280078 =
2017-10-16 16:53 METAR KMVY 162053Z 02008KT 10SM BKN029 OVC036 13/08 A2996 RMK AO2 SLP144 60000
                 T01330083 51016 =
2017-10-16 15:53 METAR KMVY 161953Z 03008KT 10SM OVC030 14/09 A2994 RMK AO2 RAB27E30 PRESRR
                 SLP137 P0000 T01390094 =
2017-10-16 15:11 METAR KMVY 161911Z 02005KT 10SM BKN031 OVC037 16/09 A2991 RMK AO2 T01560094 =
2017-10-16 15:02 METAR KMVY 161902Z 35007KT 10SM BKN029 BKN110 16/09 A2992 RMK AO2 T01610094 =

Support USWX by starting your Amazon purchase here.